AGROMETEOROLOŠKI PORTAL
Vinorodna pokrajina

Temelj dobrega kmetovanja.

Pregled podatkov za lokacijo MARINČA VAS - ARSO, meteorološka postaja 160

Pregled senzorjev na lokaciji

ID Ime Zadnja
vrednost
Datum in čas
meritve
(lokalni čas)
Tip
senzorja
5966 Padavine (mm) 0 mm 20.4.2024 18:30 ARSO
5968 Relativna zračna vlaga (2 m) (% RH) 62 % RH 20.4.2024 18:30 ARSO
5967 Temperatura (2 m) (°C) 10,4 °C 20.4.2024 18:30 ARSO

Pregled podatkov zadnjih 24 ur

Zap.
št.
Datum in čas
(lokalni čas)
MARINČA VAS - ARSO
Padavine Relativna
zračna
vlaga
(2
m)
Temperatura
(2
m)
1 20.4.2024 18:30 0 62 10,4
2 20.4.2024 18:00 0 61 10,2
3 20.4.2024 17:30 0 64 9,8
4 20.4.2024 17:00 0 65,7 9,3
5 20.4.2024 16:30 0 69,3 9
6 20.4.2024 16:00 0 48,3 11
7 20.4.2024 15:30 0 42,7 13,3
8 20.4.2024 15:00 0 47,7 13,1
9 20.4.2024 14:30 0 49 12,5
10 20.4.2024 14:00 0 40,7 13,5
11 20.4.2024 13:30 0 41,3 14,4
12 20.4.2024 13:00 0 40,7 13,6
13 20.4.2024 12:30 0 43,3 13,5
14 20.4.2024 12:00 0 44 13,3
15 20.4.2024 11:30 0 49,7 12,7
16 20.4.2024 11:00 0 55,3 11,7
17 20.4.2024 10:30 0 63,7 10,4
18 20.4.2024 10:00 0 66 8,6
19 20.4.2024 09:30 0 77,3 6,7
20 20.4.2024 09:00 0 91,3 4,3
21 20.4.2024 08:30 0 95,7 3,1
22 20.4.2024 08:00 0 97 2,1
23 20.4.2024 07:30 0 98 1
24 20.4.2024 07:00 0 97,7 0,6
25 20.4.2024 06:30 0 97,7 0,3
26 20.4.2024 06:00 0 98 0,1
27 20.4.2024 05:30 0 97 -0,2
28 20.4.2024 05:00 0 97 -0,2
29 20.4.2024 04:30 0 97,7 -0,4
30 20.4.2024 04:00 0 97 -0,7
31 20.4.2024 03:30 0 97 -0,8
32 20.4.2024 03:00 0 96,3 -0,7
33 20.4.2024 02:30 0 96 -0,5
34 20.4.2024 02:00 0 95,3 -0,1
35 20.4.2024 01:30 0 93,7 0,3
36 20.4.2024 01:00 0 94 0,7
37 20.4.2024 00:30 0 94,7 0,6
38 20.4.2024 00:00 0 93 0,7
39 19.4.2024 23:30 0 92 1,4
40 19.4.2024 23:00 0 91,7 1,9
41 19.4.2024 22:30 0 91 2,6
42 19.4.2024 22:00 0 90 2,5
43 19.4.2024 21:30 0 86,7 2,6
44 19.4.2024 21:00 0 77,3 4,3
45 19.4.2024 20:30 0 65,7 6,5
46 19.4.2024 20:00 0 56,3 8,9